LFPO/ORY METAR and TAF weather

Enter ICAO airport designator
Station Type Date Time Source
LFPO METAR 2019/05/25 09:00 UTC NOAA

LFPO 250900Z 23005KT 200V270 CAVOK 19/10 Q1019 NOSIG


Station Type Date Time Source
LFPO Decoded METAR 2019/05/25 09:00 UTC NOAA

Paris-Orly, France (LFPO) 48-44N 002-24E 96M
May 25, 2019 - 05:00 AM EDT / 2019.05.25 0900 UTC
Wind: from the SW (230 degrees) at 6 MPH (5 KT) (direction variable):0
Visibility: greater than 7 mile(s):0
Temperature: 66 F (19 C)
Dew Point: 50 F (10 C)
Relative Humidity: 55%
Pressure (altimeter): 30.09 in. Hg (1019 hPa)
ob: LFPO 250900Z 23005KT 200V270 CAVOK 19/10 Q1019 NOSIG
cycle: 9

Station Type Date Time Source
LFPO TAF 2019/05/25 06:38 UTC NOAA

TAF
AMD LFPO 250552Z 2506/2612 30006KT CAVOK
BECMG 2510/2512 SCT040TCU
TEMPO 2512/2517 4000 SHRA PROB40
TEMPO 2513/2514 35012G25KT 2500 -TSRA BKN012 SCT035CB
BECMG 2517/2520 VRB03KT CAVOK
BECMG 2608/2611 27008KT SCT030

Example: see airport list